Time;durP1;ratioP1;P1;durP2;ratioP2;P2;SDS_P1;SDS_P2;PMS_P1;PMS_P2;Temp;Humidity;BMP_temperature;BMP_pressure;BME280_temperature;BME280_humidity;BME280_pressure;Samples;Min_cycle;Max_cycle;Signal;HPM_P1;HPM_P2
2021/03/10 00:01:39;;;;;;;41.95;35.75;;;;;;;6.88;68.40;100487.81;5089678;28;20035;-74
2021/03/10 00:04:43;;;;;;;43.67;36.85;;;;;;;6.93;68.50;100490.16;5102658;28;20050;-72
2021/03/10 00:07:48;;;;;;;42.58;36.55;;;;;;;6.94;68.63;100492.69;5116045;28;20034;-78
2021/03/10 00:10:52;;;;;;;42.78;35.72;;;;;;;6.98;68.40;100493.34;5111795;28;20093;-73
2021/03/10 00:13:56;;;;;;;43.22;36.50;;;;;;;6.96;67.97;100490.75;5112952;28;20394;-76
2021/03/10 00:17:01;;;;;;;45.35;36.42;;;;;;;6.98;68.17;100488.88;5114092;28;20039;-75
2021/03/10 00:20:06;;;;;;;42.72;37.05;;;;;;;6.99;68.17;100484.38;5115188;28;20043;-74
2021/03/10 00:23:10;;;;;;;40.47;34.65;;;;;;;7.06;68.11;100491.81;5116412;28;20042;-72
2021/03/10 00:26:15;;;;;;;40.38;35.25;;;;;;;7.15;67.81;100501.88;5112158;28;20034;-75
2021/03/10 00:29:19;;;;;;;47.40;36.95;;;;;;;7.25;67.78;100507.41;5101150;28;20039;-77
2021/03/10 00:32:25;;;;;;;;;;;;;;;7.25;67.67;100510.06;5114868;28;20046;-73
2021/03/10 00:35:29;;;;;;;42.63;35.80;;;;;;;7.35;67.49;100510.25;5103316;28;20362;-74
2021/03/10 00:38:33;;;;;;;42.90;35.90;;;;;;;7.37;67.65;100519.88;5111777;28;20386;-77
2021/03/10 00:41:38;;;;;;;37.63;33.53;;;;;;;7.40;67.50;100524.13;5100190;28;20047;-75
2021/03/10 00:44:42;;;;;;;38.80;34.67;;;;;;;7.39;67.65;100525.06;5113767;28;20047;-76
2021/03/10 00:47:46;;;;;;;40.53;35.72;;;;;;;7.30;68.14;100536.44;5113453;28;20410;-77
2021/03/10 00:50:50;;;;;;;41.67;36.53;;;;;;;7.18;68.79;100520.31;5116233;28;20051;-77
2021/03/10 00:53:55;;;;;;;45.20;38.20;;;;;;;7.00;69.78;100518.97;5087563;28;20493;-76
2021/03/10 00:57:00;;;;;;;43.42;36.78;;;;;;;7.03;69.96;100521.41;5100437;28;20051;-75
2021/03/10 01:00:05;;;;;;;43.97;37.10;;;;;;;7.02;70.08;100522.38;5101444;28;20054;-77
2021/03/10 01:03:10;;;;;;;48.85;36.72;;;;;;;7.08;70.06;100532.63;5115356;28;20055;-76
2021/03/10 01:06:14;;;;;;;45.50;37.00;;;;;;;7.07;69.83;100535.38;5110878;28;20398;-77
2021/03/10 01:09:19;;;;;;;43.65;37.65;;;;;;;7.00;69.96;100529.63;5112159;28;20046;-72
2021/03/10 01:12:23;;;;;;;44.38;38.08;;;;;;;7.03;70.13;100532.09;5113613;28;20414;-76
2021/03/10 01:15:28;;;;;;;44.75;37.70;;;;;;;6.93;70.54;100535.50;5114850;28;20509;-73
2021/03/10 01:18:32;;;;;;;48.13;38.25;;;;;;;6.94;70.66;100534.53;5110435;28;20047;-75
2021/03/10 01:21:36;;;;;;;;;;;;;;;6.87;70.67;100534.13;5111852;28;20121;-74
2021/03/10 01:24:40;;;;;;;45.78;37.70;;;;;;;6.87;70.47;100534.13;5112228;28;20363;-73
2021/03/10 01:27:44;;;;;;;48.17;38.22;;;;;;;6.93;70.75;100533.69;5113266;28;20054;-75
2021/03/10 01:30:49;;;;;;;43.03;37.67;;;;;;;6.99;70.64;100535.06;5114430;28;20042;-74
2021/03/10 01:33:53;;;;;;;45.00;38.55;;;;;;;6.98;70.41;100536.03;5110489;28;20046;-76
2021/03/10 01:36:57;;;;;;;42.78;38.10;;;;;;;6.96;70.03;100562.81;5111293;28;20046;-75
2021/03/10 01:40:14;;;;;;;43.00;38.40;;;;;;;6.45;70.96;100558.38;5112492;28;20054;-76
2021/03/10 01:43:18;;;;;;;46.08;39.75;;;;;;;6.49;71.34;100566.06;5098566;28;20043;-74
2021/03/10 01:46:24;;;;;;;48.58;41.30;;;;;;;6.34;71.48;100566.28;5099927;28;20049;-75
2021/03/10 01:49:29;;;;;;;46.53;40.00;;;;;;;6.27;71.67;100564.97;5092411;28;20538;-74
2021/03/10 01:52:33;;;;;;;47.80;41.78;;;;;;;6.16;72.21;100572.81;5094468;28;20399;-77
2021/03/10 01:55:37;;;;;;;50.83;43.40;;;;;;;6.15;72.47;100571.09;5090415;28;20055;-73
2021/03/10 01:58:43;;;;;;;51.67;43.15;;;;;;;6.11;72.62;100570.47;5091430;28;20419;-75
2021/03/10 02:01:47;;;;;;;54.10;45.17;;;;;;;6.19;72.75;100572.63;5092120;28;20047;-75
2021/03/10 02:04:52;;;;;;;50.88;43.88;;;;;;;6.18;73.02;100562.91;5093933;28;20063;-73
2021/03/10 02:08:06;;;;;;;58.28;48.42;;;;;;;6.18;73.00;100573.56;5088263;28;20047;-76
2021/03/10 02:11:31;;;;;;;55.55;45.70;;;;;;;6.21;73.27;100554.72;5092905;28;20051;-74
2021/03/10 02:14:36;;;;;;;58.47;46.65;;;;;;;6.18;73.38;100569.09;5088515;28;20047;-74
2021/03/10 02:17:42;;;;;;;;;;;;;;;6.22;73.44;100564.44;5089942;28;20047;-73
2021/03/10 02:20:49;;;;;;;58.50;47.63;;;;;;;6.24;73.41;100558.03;5091246;28;19916;-76
2021/03/10 02:24:11;;;;;;;55.35;45.50;;;;;;;6.28;73.07;100558.66;5088660;28;20055;-75
2021/03/10 02:27:43;;;;;;;59.13;46.88;;;;;;;6.22;73.79;100561.75;5089252;28;20407;-76
2021/03/10 02:30:51;;;;;;;56.83;46.83;;;;;;;6.16;73.98;100578.16;5092421;28;20525;-75
2021/03/10 02:33:57;;;;;;;55.70;46.20;;;;;;;6.18;73.77;100574.44;5089395;28;20055;-75
2021/03/10 02:37:02;;;;;;;52.22;44.80;;;;;;;6.15;73.66;100581.75;5090903;28;20043;-76
2021/03/10 02:40:10;;;;;;;50.35;43.90;;;;;;;6.11;73.80;100578.47;5091185;28;20047;-77
2021/03/10 02:43:15;;;;;;;51.92;44.08;;;;;;;6.08;73.98;100577.78;5087718;28;20055;-76
2021/03/10 02:46:20;;;;;;;52.88;44.97;;;;;;;6.01;73.96;100572.03;5088970;28;20039;-75
2021/03/10 02:49:25;;;;;;;52.50;45.75;;;;;;;5.96;74.70;100583.94;5090107;28;20043;-77
2021/03/10 02:52:30;;;;;;;51.67;45.60;;;;;;;5.91;74.85;100584.22;5092332;28;20047;-77
2021/03/10 02:55:35;;;;;;;56.13;46.55;;;;;;;5.95;74.72;100582.22;5087433;28;20043;-75
2021/03/10 02:58:41;;;;;;;55.38;46.78;;;;;;;5.82;75.08;100580.34;5077278;28;20043;-77
2021/03/10 03:01:46;;;;;;;52.90;47.03;;;;;;;5.77;75.49;100589.56;5090490;28;20047;-72
2021/03/10 03:04:52;;;;;;;54.78;46.20;;;;;;;5.74;75.46;100581.75;5090875;28;20051;-74
2021/03/10 03:07:57;;;;;;;52.78;44.80;;;;;;;5.82;75.55;100592.78;5077395;28;20043;-75
2021/03/10 03:11:03;;;;;;;54.00;45.88;;;;;;;5.80;75.40;100598.19;5081262;28;20052;-75
2021/03/10 03:14:09;;;;;;;53.08;43.83;;;;;;;5.78;75.24;100592.13;5087818;28;20047;-75
2021/03/10 03:17:15;;;;;;;49.85;43.45;;;;;;;5.63;75.83;100601.09;5080071;28;20047;-76
2021/03/10 03:20:21;;;;;;;54.35;45.30;;;;;;;5.62;76.04;100603.84;5087062;28;20062;-77
2021/03/10 03:23:26;;;;;;;51.33;43.53;;;;;;;5.55;76.17;100608.72;5076639;28;20059;-77
2021/03/10 03:26:31;;;;;;;51.92;45.42;;;;;;;5.60;76.32;100600.44;5088600;28;20403;-75
2021/03/10 03:29:37;;;;;;;52.30;43.42;;;;;;;5.61;76.02;100607.47;5085518;28;20051;-76
2021/03/10 03:32:43;;;;;;;51.03;43.72;;;;;;;5.67;75.92;100607.09;5076968;28;20114;-75
2021/03/10 03:35:51;;;;;;;51.72;44.55;;;;;;;5.54;75.99;100607.00;5088977;28;20051;-76
2021/03/10 03:38:56;;;;;;;52.05;45.33;;;;;;;5.52;76.25;100602.72;5079164;28;20097;-74
2021/03/10 03:42:00;;;;;;;50.30;44.05;;;;;;;5.49;76.48;100608.22;5085542;28;20043;-75
2021/03/10 03:45:06;;;;;;;53.47;43.67;;;;;;;5.41;76.63;100600.72;5081773;28;20067;-76
2021/03/10 03:48:11;;;;;;;57.45;44.35;;;;;;;5.44;76.41;100602.34;5082497;28;20054;-77
2021/03/10 03:51:26;;;;;;;55.20;45.25;;;;;;;5.41;76.49;100603.38;5105619;28;20043;-76
2021/03/10 03:54:31;;;;;;;58.47;45.60;;;;;;;5.37;76.90;100615.19;5092946;28;20051;-74
2021/03/10 03:57:35;;;;;;;56.20;47.30;;;;;;;5.34;76.90;100610.06;5109787;28;20156;-77
2021/03/10 04:00:40;;;;;;;58.05;47.30;;;;;;;5.29;76.83;100612.13;5099542;28;20043;-75
2021/03/10 04:03:45;;;;;;;53.00;44.33;;;;;;;5.32;76.93;100616.41;5104231;28;20048;-76
2021/03/10 04:06:50;;;;;;;54.22;45.08;;;;;;;5.35;76.95;100610.91;5107508;28;20051;-73
2021/03/10 04:09:54;;;;;;;61.25;47.20;;;;;;;5.36;76.31;100613.47;5099601;28;20403;-75
2021/03/10 04:13:02;;;;;;;50.92;43.00;;;;;;;5.35;76.11;100627.75;5104864;28;20051;-74
2021/03/10 04:16:07;;;;;;;54.78;45.08;;;;;;;5.43;76.27;100629.94;5102526;28;20035;-76
2021/03/10 04:19:12;;;;;;;49.90;43.63;;;;;;;5.51;75.99;100632.94;5076774;28;20047;-75
2021/03/10 04:22:16;;;;;;;55.45;43.97;;;;;;;5.49;75.79;100629.53;5108647;28;20046;-73
2021/03/10 04:25:21;;;;;;;58.28;43.50;;;;;;;5.50;75.82;100637.44;5105019;28;20074;-76
2021/03/10 04:28:25;;;;;;;51.03;43.45;;;;;;;5.45;75.75;100625.38;5110701;28;20051;-73
2021/03/10 04:31:29;;;;;;;52.15;44.33;;;;;;;5.40;75.84;100625.66;5102671;28;20047;-73
2021/03/10 04:34:33;;;;;;;54.28;43.50;;;;;;;5.46;75.42;100630.56;5101630;28;20094;-75
2021/03/10 04:37:40;;;;;;;48.47;41.95;;;;;;;5.46;75.38;100625.25;5108912;28;20067;-73
2021/03/10 04:40:44;;;;;;;50.33;42.28;;;;;;;5.59;75.13;100626.22;5100084;28;20390;-74
2021/03/10 04:43:48;;;;;;;51.33;44.28;;;;;;;5.56;75.03;100637.03;5112119;28;20532;-75
2021/03/10 04:46:53;;;;;;;49.20;42.33;;;;;;;5.60;75.08;100641.25;5107877;28;20063;-75
2021/03/10 04:49:57;;;;;;;51.85;43.88;;;;;;;5.55;75.21;100640.69;5063400;28;20052;-75
2021/03/10 04:53:01;;;;;;;53.30;42.88;;;;;;;5.61;75.21;100644.72;5069652;28;20059;-74
2021/03/10 04:56:06;;;;;;;52.88;43.25;;;;;;;5.71;75.03;100646.72;5062298;28;20041;-77
2021/03/10 04:59:10;;;;;;;52.30;44.00;;;;;;;5.73;74.63;100638.63;5072806;28;20067;-76
2021/03/10 05:02:14;;;;;;;48.83;42.38;;;;;;;5.76;74.66;100643.78;5064451;28;20956;-76
2021/03/10 05:05:19;;;;;;;53.05;44.33;;;;;;;5.74;74.37;100645.69;5060676;28;20404;-76
2021/03/10 05:08:23;;;;;;;49.63;43.28;;;;;;;5.70;74.70;100652.16;5069543;28;20114;-76
2021/03/10 05:11:27;;;;;;;52.28;44.35;;;;;;;5.72;74.68;100660.91;5071400;28;20503;-75
2021/03/10 05:14:32;;;;;;;50.60;41.67;;;;;;;5.75;74.77;100669.53;5071739;28;20056;-76
2021/03/10 05:17:36;;;;;;;52.05;44.55;;;;;;;5.83;74.62;100680.59;5060140;28;20057;-74
2021/03/10 05:20:41;;;;;;;50.25;44.65;;;;;;;5.85;74.54;100681.38;5067729;28;20051;-76
2021/03/10 05:23:45;;;;;;;52.75;43.55;;;;;;;5.82;74.57;100678.88;5069534;28;20048;-75
2021/03/10 05:26:49;;;;;;;52.53;43.20;;;;;;;5.85;74.50;100686.69;5060507;28;20103;-76
2021/03/10 05:29:53;;;;;;;50.35;44.92;;;;;;;5.82;74.50;100681.56;5071517;28;20048;-73
2021/03/10 05:32:58;;;;;;;51.92;45.10;;;;;;;5.82;74.45;100686.00;5051830;28;20107;-75
2021/03/10 05:36:03;;;;;;;54.20;45.33;;;;;;;5.75;74.84;100682.88;5061853;28;20043;-75
2021/03/10 05:39:07;;;;;;;51.53;45.03;;;;;;;5.72;74.75;100683.06;5068782;28;20399;-74
2021/03/10 05:42:12;;;;;;;58.30;45.58;;;;;;;5.78;74.82;100689.81;5059658;28;20051;-74
2021/03/10 05:45:16;;;;;;;58.03;45.70;;;;;;;5.89;74.58;100693.56;5071293;28;20039;-74
2021/03/10 05:48:21;;;;;;;54.35;45.40;;;;;;;5.95;74.33;100694.13;5066102;28;20055;-74
2021/03/10 05:51:25;;;;;;;54.15;44.55;;;;;;;5.96;73.96;100690.50;5111567;28;20039;-73
2021/03/10 05:54:31;;;;;;;56.00;44.95;;;;;;;5.97;73.90;100697.53;5103443;28;20046;-75
2021/03/10 05:57:35;;;;;;;54.72;45.15;;;;;;;5.98;74.06;100691.25;5110522;28;20038;-77
2021/03/10 06:00:57;;;;;;;51.80;44.78;;;;;;;6.07;73.94;100696.00;5109794;28;20047;-73
2021/03/10 06:04:04;;;;;;;51.35;44.85;;;;;;;6.02;74.18;100695.44;5110208;28;20050;-74
2021/03/10 06:07:18;;;;;;;286.60;212.43;;;;;;;6.03;74.49;100700.66;5099416;28;20512;-75
2021/03/10 06:10:22;;;;;;;;;;;;;;;6.04;74.25;100706.84;5110734;28;20036;-76
2021/03/10 06:13:28;;;;;;;59.15;48.90;;;;;;;6.13;74.31;100706.25;5111457;28;19915;-76
2021/03/10 06:16:32;;;;;;;58.13;49.88;;;;;;;6.24;74.50;100717.09;5113095;28;20513;-74
2021/03/10 06:19:44;;;;;;;54.83;46.50;;;;;;;6.31;73.83;100721.94;5101419;28;20063;-74
2021/03/10 06:22:49;;;;;;;56.58;47.30;;;;;;;6.35;73.62;100728.78;5099370;28;20050;-73
2021/03/10 06:25:53;;;;;;;57.15;46.85;;;;;;;6.41;73.26;100732.88;5113022;28;20062;-74
2021/03/10 06:29:00;;;;;;;60.40;46.28;;;;;;;6.43;73.06;100731.81;5084372;28;20050;-74
2021/03/10 06:32:06;;;;;;;54.58;46.78;;;;;;;6.37;73.24;100740.19;5110188;28;20035;-74
2021/03/10 06:35:11;;;;;;;55.58;47.45;;;;;;;6.41;73.33;100748.88;5099070;28;20035;-73
2021/03/10 06:38:18;;;;;;;56.70;47.67;;;;;;;6.45;72.78;100745.03;5112706;28;20046;-74
2021/03/10 06:41:35;;;;;;;55.20;47.05;;;;;;;6.51;72.55;100750.84;5096065;28;20038;-76
2021/03/10 06:44:53;;;;;;;54.03;47.83;;;;;;;6.53;72.62;100756.06;5097602;28;20517;-73
2021/03/10 06:47:57;;;;;;;57.38;48.33;;;;;;;6.64;72.42;100766.88;5113289;28;20118;-74
2021/03/10 06:51:01;;;;;;;56.47;46.65;;;;;;;6.79;71.76;100773.06;5114525;28;20051;-73
2021/03/10 06:54:15;;;;;;;51.83;45.55;;;;;;;6.94;71.35;100780.88;5089932;28;20403;-75
2021/03/10 06:57:19;;;;;;;55.83;46.88;;;;;;;7.04;71.02;100782.00;5114364;28;20038;-78
2021/03/10 07:00:24;;;;;;;58.13;44.97;;;;;;;7.09;70.80;100782.53;5101901;28;20058;-73
2021/03/10 07:03:30;;;;;;;57.05;45.65;;;;;;;7.20;70.72;100789.84;5073543;28;20047;-74
2021/03/10 07:06:35;;;;;;;51.92;44.58;;;;;;;7.31;70.33;100786.47;5064505;28;20044;-80
2021/03/10 07:09:40;;;;;;;70.68;45.97;;;;;;;7.19;70.57;100791.66;5104390;28;20050;-79
2021/03/10 07:12:45;;;;;;;60.63;46.00;;;;;;;7.17;70.86;100798.91;5101400;28;20391;-78
2021/03/10 07:15:52;;;;;;;53.40;46.70;;;;;;;7.25;70.34;100798.41;5114274;28;20055;-78
2021/03/10 07:18:56;;;;;;;54.97;45.00;;;;;;;7.40;69.84;100800.03;5113555;28;20047;-75
2021/03/10 07:22:06;;;;;;;64.13;45.90;;;;;;;7.65;69.45;100809.91;5113663;28;20047;-74
2021/03/10 07:25:14;;;;;;;56.75;43.55;;;;;;;8.03;68.58;100810.78;5101571;28;20154;-77
2021/03/10 07:28:31;;;;;;;50.85;41.88;;;;;;;8.25;66.94;100810.09;5073045;28;20043;-76
2021/03/10 07:31:35;;;;;;;51.70;42.25;;;;;;;8.28;67.33;100820.63;5073403;28;20055;-73
2021/03/10 07:34:40;;;;;;;55.78;44.35;;;;;;;8.19;67.53;100821.25;5073180;28;20055;-75
2021/03/10 07:37:54;;;;;;;56.95;42.65;;;;;;;8.35;67.86;100824.56;5062190;28;20051;-72
2021/03/10 07:41:01;;;;;;;53.20;41.88;;;;;;;8.76;66.77;100833.19;5109103;28;20058;-76
2021/03/10 07:44:18;;;;;;;54.67;42.33;;;;;;;9.34;65.44;100829.72;5113813;28;20051;-75
2021/03/10 07:47:23;;;;;;;53.35;43.75;;;;;;;10.26;62.76;100827.91;5085249;28;20090;-74
2021/03/10 07:50:41;;;;;;;53.10;42.60;;;;;;;11.41;58.61;100839.06;5092445;28;20044;-73
2021/03/10 07:53:46;;;;;;;47.40;40.67;;;;;;;11.75;57.80;100838.00;5109033;28;20039;-71
2021/03/10 07:56:50;;;;;;;56.55;39.03;;;;;;;11.79;57.10;100842.13;5115769;28;20048;-72
2021/03/10 08:00:01;;;;;;;52.67;40.33;;;;;;;11.91;56.66;100849.13;5117410;28;20043;-72
2021/03/10 08:03:06;;;;;;;67.72;39.83;;;;;;;12.44;55.22;100849.88;5089851;28;20036;-72
2021/03/10 08:06:12;;;;;;;52.70;37.65;;;;;;;17.70;42.64;100845.22;5073292;28;20040;-72
2021/03/10 08:09:18;;;;;;;48.08;37.67;;;;;;;20.91;34.40;100858.09;5071853;28;20040;-72
2021/03/10 08:12:36;;;;;;;41.30;34.92;;;;;;;21.41;33.07;100862.75;5063780;28;20044;-75
2021/03/10 08:15:41;;;;;;;40.03;33.75;;;;;;;22.49;31.27;100860.69;5083946;28;20044;-71
2021/03/10 08:18:46;;;;;;;44.55;35.38;;;;;;;21.02;33.03;100864.97;5095980;28;20040;-72
2021/03/10 08:21:53;;;;;;;36.92;33.13;;;;;;;19.18;36.15;100866.34;5072972;28;20430;-73
2021/03/10 08:24:59;;;;;;;37.58;33.42;;;;;;;19.22;36.30;100863.09;5075752;28;20048;-72
2021/03/10 08:28:15;;;;;;;43.40;33.38;;;;;;;23.88;29.04;100852.91;5088966;28;20040;-73
2021/03/10 08:31:19;;;;;;;37.13;33.13;;;;;;;26.46;25.32;100854.34;5066629;28;20036;-73
2021/03/10 08:34:36;;;;;;;34.92;30.55;;;;;;;28.44;22.96;100844.34;5094706;28;20043;-73
2021/03/10 08:37:42;;;;;;;35.65;31.42;;;;;;;28.91;21.51;100854.34;5085513;28;20040;-74
2021/03/10 08:40:46;;;;;;;32.58;29.20;;;;;;;29.87;21.03;100854.44;5072548;28;20039;-72
2021/03/10 08:44:01;;;;;;;27.98;24.95;;;;;;;30.91;18.75;100854.81;5078585;28;20052;-74
2021/03/10 08:47:11;;;;;;;27.90;24.15;;;;;;;29.74;20.09;100860.25;5090452;28;20483;-77
2021/03/10 08:50:16;;;;;;;27.48;24.67;;;;;;;29.79;20.23;100860.38;5073708;28;20040;-76
2021/03/10 08:53:24;;;;;;;29.88;25.17;;;;;;;30.02;19.98;100864.94;5071685;28;20041;-76
2021/03/10 08:56:29;;;;;;;28.25;25.40;;;;;;;30.05;19.85;100853.34;5071207;28;20048;-76
2021/03/10 08:59:35;;;;;;;28.25;25.25;;;;;;;30.08;19.42;100858.38;5076230;28;20036;-73
2021/03/10 09:02:41;;;;;;;28.23;25.40;;;;;;;30.17;19.32;100854.13;5073669;28;20415;-77
2021/03/10 09:05:47;;;;;;;29.30;25.75;;;;;;;30.27;19.43;100855.13;5091508;28;20040;-74
2021/03/10 09:08:54;;;;;;;29.15;26.15;;;;;;;31.31;18.95;100853.38;5061828;28;20044;-74
2021/03/10 09:11:59;;;;;;;27.27;24.58;;;;;;;31.20;18.88;100859.09;5068540;28;20040;-77
2021/03/10 09:15:23;;;;;;;28.40;25.20;;;;;;;30.09;19.84;100851.78;5062740;28;20488;-73
2021/03/10 09:18:35;;;;;;;29.10;24.38;;;;;;;30.09;19.95;100851.78;5082265;28;20036;-73
2021/03/10 09:21:42;;;;;;;25.92;23.30;;;;;;;30.17;20.10;100854.97;5095105;28;20044;-75
2021/03/10 09:25:07;;;;;;;26.75;23.83;;;;;;;28.98;21.26;100855.88;5082443;28;20052;-75
2021/03/10 09:28:14;;;;;;;26.08;23.27;;;;;;;28.18;21.27;100856.66;5082418;28;20036;-74
2021/03/10 09:31:35;;;;;;;;;;;;;;;27.39;22.19;100868.84;5093509;28;20147;-75
2021/03/10 09:34:51;;;;;;;25.58;23.02;;;;;;;26.75;22.74;100871.22;5113955;28;19915;-74
2021/03/10 09:37:58;;;;;;;23.27;20.70;;;;;;;25.99;22.74;100865.09;5111178;28;20035;-74
2021/03/10 09:41:05;;;;;;;27.65;24.00;;;;;;;23.99;25.99;100871.50;5062434;28;20487;-75
2021/03/10 09:44:13;;;;;;;26.27;23.58;;;;;;;21.84;28.72;100874.59;5081100;28;20044;-74
2021/03/10 09:47:24;;;;;;;30.33;23.25;;;;;;;20.75;29.14;100880.13;5093763;28;20032;-74
2021/03/10 09:50:34;;;;;;;26.65;23.83;;;;;;;20.07;30.51;100869.34;5073296;28;20391;-73
2021/03/10 09:53:48;;;;;;;26.73;23.88;;;;;;;18.76;32.59;100870.22;5081177;28;20044;-73
2021/03/10 09:56:57;;;;;;;29.88;23.33;;;;;;;18.28;33.17;100886.63;5089416;28;20065;-73
2021/03/10 10:00:21;;;;;;;25.67;21.02;;;;;;;18.19;34.34;100876.78;5082174;28;20048;-75
2021/03/10 10:03:29;;;;;;;26.00;20.00;;;;;;;17.86;32.77;100872.34;5081376;28;20044;-79
2021/03/10 10:06:52;;;;;;;24.20;21.48;;;;;;;17.19;33.50;100874.22;5081513;28;20047;-74
2021/03/10 10:09:59;;;;;;;25.40;22.00;;;;;;;16.76;34.58;100877.09;5081789;28;20040;-74
2021/03/10 10:13:04;;;;;;;30.80;21.83;;;;;;;16.48;33.80;100878.25;5081321;28;20503;-77
2021/03/10 10:16:18;;;;;;;25.77;22.42;;;;;;;16.23;34.80;100882.66;5075159;28;20397;-75
2021/03/10 10:19:23;;;;;;;24.75;20.05;;;;;;;16.22;35.16;100881.78;5073736;28;20036;-74
2021/03/10 10:22:28;;;;;;;26.25;22.80;;;;;;;16.14;35.33;100875.47;5073795;28;20399;-75
2021/03/10 10:25:33;;;;;;;28.95;22.67;;;;;;;15.60;37.56;100880.06;5067725;28;20044;-74
2021/03/10 10:28:40;;;;;;;25.13;22.10;;;;;;;15.65;36.64;100868.81;5061570;28;20048;-76
2021/03/10 10:31:49;;;;;;;29.20;22.35;;;;;;;15.62;37.67;100866.41;5051989;28;20049;-75
2021/03/10 10:34:55;;;;;;;30.13;22.20;;;;;;;15.41;37.34;100858.53;5072734;28;20052;-74
2021/03/10 10:38:01;;;;;;;26.77;21.55;;;;;;;15.19;37.13;100869.78;5064141;28;20041;-78
2021/03/10 10:41:05;;;;;;;31.08;22.33;;;;;;;14.95;38.38;100862.25;5080761;28;20049;-77
2021/03/10 10:44:10;;;;;;;25.73;20.95;;;;;;;14.56;36.85;100868.81;5089102;28;20045;-74
2021/03/10 10:47:15;;;;;;;24.52;18.98;;;;;;;14.84;35.75;100865.13;5087309;28;20044;-77
2021/03/10 10:50:19;;;;;;;25.33;18.17;;;;;;;14.94;35.15;100867.78;5081040;28;20483;-76
2021/03/10 10:53:28;;;;;;;25.40;18.50;;;;;;;14.93;35.26;100871.50;5081041;28;20048;-75
2021/03/10 10:56:33;;;;;;;25.42;19.15;;;;;;;15.01;36.00;100874.28;5075962;28;20052;-74
2021/03/10 10:59:45;;;;;;;25.35;21.02;;;;;;;14.67;36.97;100868.63;5062794;28;20055;-74
2021/03/10 11:02:55;;;;;;;27.08;21.55;;;;;;;14.59;36.68;100870.38;5080267;28;20043;-74
2021/03/10 11:06:09;;;;;;;25.55;20.83;;;;;;;14.75;37.15;100857.94;5080425;28;20502;-77
2021/03/10 11:09:19;;;;;;;23.38;19.92;;;;;;;14.69;36.74;100847.72;5093594;28;20044;-75
2021/03/10 11:12:23;;;;;;;25.20;20.95;;;;;;;14.93;36.66;100853.44;5080996;28;20044;-75
2021/03/10 11:15:35;;;;;;;30.40;22.30;;;;;;;14.68;37.09;100856.84;5081236;28;20043;-73
2021/03/10 11:19:10;;;;;;;24.77;19.42;;;;;;;14.66;36.72;100858.84;5073523;28;20048;-75
2021/03/10 11:21:59;;;;;;;22.80;19.50;;;;;;;14.52;36.12;100853.03;5078133;28;20039;-73
2021/03/10 11:25:08;;;;;;;25.92;20.17;;;;;;;14.09;37.29;100857.13;5080859;28;20048;-77
2021/03/10 11:28:14;;;;;;;23.60;18.70;;;;;;;14.22;37.25;100849.53;5092882;28;20040;-74
2021/03/10 11:31:18;;;;;;;22.23;18.27;;;;;;;14.12;37.30;100858.69;5071488;28;20048;-74
2021/03/10 11:34:25;;;;;;;21.90;17.33;;;;;;;14.40;35.67;100846.09;5084821;28;20048;-73
2021/03/10 11:37:29;;;;;;;20.35;17.17;;;;;;;14.48;35.52;100847.09;5095279;28;20047;-74
2021/03/10 11:40:38;;;;;;;20.65;15.25;;;;;;;14.41;34.07;100837.88;5097279;28;20048;-76
2021/03/10 11:43:43;;;;;;;22.40;16.95;;;;;;;14.17;34.37;100843.72;5080958;28;20482;-73
2021/03/10 11:46:47;;;;;;;23.80;19.92;;;;;;;13.89;37.59;100833.00;5089447;28;20043;-76
2021/03/10 11:49:51;;;;;;;24.33;19.05;;;;;;;14.07;37.80;100833.97;5091135;28;20052;-75
2021/03/10 11:52:56;;;;;;;22.90;20.05;;;;;;;14.11;37.96;100829.97;5079377;28;20044;-73
2021/03/10 11:56:00;;;;;;;22.33;18.85;;;;;;;14.12;37.59;100826.28;5097075;28;20048;-75
2021/03/10 11:59:04;;;;;;;23.58;19.42;;;;;;;14.17;37.33;100829.41;5084701;28;20044;-73
2021/03/10 12:02:17;;;;;;;23.58;17.92;;;;;;;13.94;37.13;100822.63;5095137;28;20036;-73
2021/03/10 12:05:28;;;;;;;21.58;17.23;;;;;;;13.83;37.09;100830.84;5100930;28;20040;-74
2021/03/10 12:08:32;;;;;;;24.73;18.77;;;;;;;13.85;37.92;100826.19;5113432;28;20044;-72
2021/03/10 12:11:37;;;;;;;22.45;16.33;;;;;;;13.78;37.14;100820.50;5100687;28;20040;-72
2021/03/10 12:14:42;;;;;;;22.27;17.25;;;;;;;13.63;37.03;100809.28;5113181;28;20044;-72
2021/03/10 12:17:46;;;;;;;22.70;16.73;;;;;;;13.72;37.01;100815.69;5104765;28;20040;-73
2021/03/10 12:20:51;;;;;;;21.70;16.45;;;;;;;13.94;36.62;100812.69;5083669;28;20036;-75
2021/03/10 12:23:56;;;;;;;21.85;17.05;;;;;;;13.95;36.50;100811.66;5084158;28;20422;-74
2021/03/10 12:27:01;;;;;;;22.35;16.63;;;;;;;14.02;36.74;100804.69;5072329;28;20044;-72
2021/03/10 12:30:06;;;;;;;20.65;16.65;;;;;;;13.89;36.53;100801.47;5084074;28;20040;-74
2021/03/10 12:33:13;;;;;;;21.67;16.83;;;;;;;14.03;35.98;100787.50;5084047;28;20487;-74
2021/03/10 12:36:17;;;;;;;20.10;17.75;;;;;;;14.00;35.96;100786.97;5096385;28;20044;-73
2021/03/10 12:39:21;;;;;;;20.42;16.88;;;;;;;13.94;36.75;100771.34;5096500;28;20499;-74
2021/03/10 12:42:25;;;;;;;22.83;16.20;;;;;;;13.91;37.30;100772.47;5115511;28;20043;-76
2021/03/10 12:45:30;;;;;;;22.17;17.35;;;;;;;13.86;36.71;100760.41;5088432;28;20403;-73
2021/03/10 12:48:34;;;;;;;19.83;16.63;;;;;;;13.93;37.06;100762.38;5116011;28;20043;-73
2021/03/10 12:51:38;;;;;;;24.23;16.42;;;;;;;13.91;36.37;100763.53;5116581;28;20044;-75
2021/03/10 12:54:42;;;;;;;26.92;15.82;;;;;;;13.83;36.97;100760.69;5115782;28;20052;-73
2021/03/10 12:57:47;;;;;;;19.27;16.20;;;;;;;13.83;36.57;100758.84;5090577;28;20040;-75
2021/03/10 13:00:51;;;;;;;18.77;15.75;;;;;;;13.95;36.44;100746.88;5090806;28;20044;-74
2021/03/10 13:03:56;;;;;;;23.25;16.33;;;;;;;13.99;36.36;100739.38;5111764;28;20039;-74
2021/03/10 13:07:01;;;;;;;19.77;15.65;;;;;;;13.90;36.47;100745.66;5115280;28;20482;-74
2021/03/10 13:10:06;;;;;;;19.08;14.95;;;;;;;14.04;36.76;100742.47;5075601;28;20103;-77
2021/03/10 13:13:10;;;;;;;17.10;14.10;;;;;;;14.12;36.23;100729.09;5063326;28;20036;-75
2021/03/10 13:16:15;;;;;;;17.98;14.57;;;;;;;14.18;36.39;100733.88;5086377;28;20040;-74
2021/03/10 13:19:19;;;;;;;16.63;14.55;;;;;;;14.21;36.53;100729.06;5112055;28;20048;-75
2021/03/10 13:22:24;;;;;;;17.45;14.93;;;;;;;14.30;36.28;100722.78;5088291;28;20052;-73
2021/03/10 13:25:28;;;;;;;16.95;14.27;;;;;;;14.34;35.77;100720.66;5062754;28;20045;-74
2021/03/10 13:28:32;;;;;;;16.23;14.38;;;;;;;14.23;36.21;100716.25;5095218;28;20407;-74
2021/03/10 13:31:37;;;;;;;16.88;14.07;;;;;;;14.15;36.65;100717.97;5095377;28;20044;-74
2021/03/10 13:34:41;;;;;;;20.05;15.30;;;;;;;14.15;35.95;100718.84;5095027;28;20048;-74
2021/03/10 13:37:45;;;;;;;18.90;14.35;;;;;;;14.12;35.87;100713.72;5071374;28;20040;-74
2021/03/10 13:40:50;;;;;;;19.15;14.07;;;;;;;14.19;36.51;100711.31;5082529;28;20403;-75
2021/03/10 13:43:54;;;;;;;18.17;14.07;;;;;;;14.31;36.01;100719.09;5063170;28;20041;-74
2021/03/10 13:46:59;;;;;;;16.38;14.23;;;;;;;14.24;36.12;100715.25;5090426;28;20048;-75
2021/03/10 13:50:04;;;;;;;14.82;12.32;;;;;;;14.14;35.17;100719.00;5067652;28;20480;-75
2021/03/10 13:53:08;;;;;;;19.88;13.50;;;;;;;14.13;35.84;100710.03;5074351;28;20040;-74
2021/03/10 13:56:12;;;;;;;14.85;12.98;;;;;;;14.25;35.37;100718.78;5074441;28;20052;-74
2021/03/10 13:59:17;;;;;;;17.38;14.10;;;;;;;14.30;35.36;100720.09;5074676;28;20040;-75
2021/03/10 14:02:21;;;;;;;16.40;14.05;;;;;;;14.29;35.73;100710.22;5077140;28;20044;-72
2021/03/10 14:05:25;;;;;;;17.35;13.90;;;;;;;14.34;36.06;100712.53;5094479;28;20036;-73
2021/03/10 14:08:30;;;;;;;15.60;13.93;;;;;;;14.37;36.02;100712.22;5082026;28;20044;-73
2021/03/10 14:11:34;;;;;;;19.38;14.15;;;;;;;14.37;35.18;100712.22;5094294;28;20124;-74
2021/03/10 14:14:41;;;;;;;17.70;15.23;;;;;;;14.28;35.11;100713.94;5094210;28;20040;-73